createdAt,value
2023-01-13T00:01:20.642Z,95.92
2023-01-13T00:04:23.469Z,95.78
2023-01-13T00:07:26.255Z,95.87
2023-01-13T00:10:34.403Z,96.05
2023-01-13T00:13:38.811Z,95.61
2023-01-13T00:16:41.649Z,95.86
2023-01-13T00:19:45.066Z,96.03
2023-01-13T00:22:47.907Z,95.51
2023-01-13T00:25:50.687Z,95.23
2023-01-13T00:29:00.476Z,95.62
2023-01-13T00:32:03.653Z,95.45
2023-01-13T00:35:07.389Z,95.18
2023-01-13T00:38:10.255Z,95.45
2023-01-13T00:41:17.142Z,95.16
2023-01-13T00:44:20.065Z,94.76
2023-01-13T00:47:23.764Z,94.39
2023-01-13T00:50:28.874Z,93.77
2023-01-13T00:53:37.276Z,94.33
2023-01-13T00:56:41.273Z,94.04
2023-01-13T00:59:44.369Z,93.75
2023-01-13T01:02:47.295Z,93.70
2023-01-13T01:05:50.281Z,92.87
2023-01-13T01:08:54.224Z,92.72
2023-01-13T01:11:57.069Z,92.39
2023-01-13T01:14:59.884Z,92.49
2023-01-13T01:18:02.707Z,91.54
2023-01-13T01:21:07.217Z,91.50
2023-01-13T01:24:10.369Z,90.76
2023-01-13T01:27:13.103Z,91.36
2023-01-13T01:30:16.085Z,90.77
2023-01-13T01:33:18.837Z,90.76
2023-01-13T01:36:23.330Z,90.88
2023-01-13T01:39:26.297Z,90.70
2023-01-13T01:42:47.707Z,91.23
2023-01-13T01:45:52.892Z,90.73
2023-01-13T01:49:30.345Z,90.60
2023-01-13T01:52:45.113Z,91.08
2023-01-13T01:55:47.998Z,90.45
2023-01-13T01:58:52.526Z,90.06
2023-01-13T02:01:55.489Z,89.99
2023-01-13T02:04:58.906Z,89.37
2023-01-13T02:08:02.075Z,88.79
2023-01-13T02:11:05.216Z,88.94
2023-01-13T02:14:31.044Z,89.23
2023-01-13T02:18:01.695Z,88.40
2023-01-13T02:21:10.937Z,88.70
2023-01-13T02:24:35.489Z,88.17
2023-01-13T02:28:13.617Z,88.17
2023-01-13T02:31:35.033Z,87.81
2023-01-13T02:34:45.432Z,87.95
2023-01-13T02:37:49.299Z,87.56
2023-01-13T02:41:21.298Z,87.42
2023-01-13T02:44:31.574Z,87.61
2023-01-13T02:47:37.766Z,87.45
2023-01-13T02:50:48.915Z,87.30
2023-01-13T02:53:58.089Z,87.55
2023-01-13T02:57:01.766Z,87.81
2023-01-13T03:00:06.875Z,87.56
2023-01-13T03:03:09.650Z,87.23
2023-01-13T03:06:18.545Z,87.95
2023-01-13T03:09:33.225Z,87.79
2023-01-13T03:13:00.126Z,88.01
2023-01-13T03:16:11.883Z,88.06
2023-01-13T03:19:25.868Z,87.98
2023-01-13T03:22:43.211Z,87.95
2023-01-13T03:26:33.910Z,87.89
2023-01-13T03:29:43.381Z,87.41
2023-01-13T03:32:50.128Z,86.66
2023-01-13T03:35:56.086Z,87.46
2023-01-13T03:39:07.972Z,87.20
2023-01-13T03:42:15.347Z,87.57
2023-01-13T03:45:18.440Z,87.36
2023-01-13T03:48:23.161Z,87.58
2023-01-13T03:51:28.428Z,88.17
2023-01-13T03:54:34.026Z,88.18
2023-01-13T03:57:42.409Z,88.12
2023-01-13T04:00:55.110Z,88.34
2023-01-13T04:03:58.020Z,87.82
2023-01-13T04:07:16.523Z,87.59
2023-01-13T04:10:41.484Z,88.27
2023-01-13T04:13:46.173Z,87.77
2023-01-13T04:16:49.240Z,87.09
2023-01-13T04:19:52.359Z,86.98
2023-01-13T04:22:55.209Z,86.60
2023-01-13T04:25:58.039Z,86.87
2023-01-13T04:29:01.096Z,86.08
2023-01-13T04:32:04.283Z,86.67
2023-01-13T04:35:08.672Z,87.28
2023-01-13T04:38:16.325Z,87.61
2023-01-13T04:41:19.242Z,88.05
2023-01-13T04:44:22.215Z,88.20
2023-01-13T04:47:25.128Z,88.07
2023-01-13T04:50:28.367Z,88.94
2023-01-13T04:53:31.189Z,88.76
2023-01-13T04:56:34.272Z,89.63
2023-01-13T04:59:37.103Z,90.14
2023-01-13T05:02:40.501Z,90.03
2023-01-13T05:05:43.620Z,90.83
2023-01-13T05:08:46.495Z,91.29
2023-01-13T05:12:07.901Z,91.25
2023-01-13T05:15:33.286Z,91.66
2023-01-13T05:18:36.149Z,92.08
2023-01-13T05:21:57.367Z,92.76
2023-01-13T05:25:18.583Z,93.49
2023-01-13T05:28:21.605Z,94.50
2023-01-13T05:31:24.540Z,95.05
2023-01-13T05:34:27.328Z,94.97
2023-01-13T05:37:30.273Z,95.86
2023-01-13T05:40:52.209Z,96.20
2023-01-13T05:43:55.130Z,96.94
2023-01-13T05:46:57.928Z,97.19
2023-01-13T05:50:00.868Z,98.62
2023-01-13T05:53:04.723Z,98.93
2023-01-13T05:56:08.435Z,98.53
2023-01-13T05:59:11.420Z,98.65
2023-01-13T06:02:14.249Z,98.78
2023-01-13T06:05:17.466Z,99.43
2023-01-13T06:08:20.417Z,100.00
2023-01-13T06:11:23.412Z,100.00
2023-01-13T06:14:40.302Z,100.00
2023-01-13T06:17:43.331Z,100.00
2023-01-13T06:20:47.568Z,100.00
2023-01-13T06:23:50.453Z,100.00
2023-01-13T06:26:53.374Z,100.00
2023-01-13T06:29:57.366Z,100.00
2023-01-13T06:33:02.205Z,100.00
2023-01-13T06:36:11.374Z,100.00
2023-01-13T06:39:19.350Z,100.00
2023-01-13T06:43:00.461Z,100.00
2023-01-13T06:46:03.471Z,100.00
2023-01-13T06:49:07.488Z,100.00
2023-01-13T06:52:10.364Z,100.00
2023-01-13T06:55:13.309Z,100.00
2023-01-13T06:58:16.383Z,100.00
2023-01-13T07:01:19.456Z,100.00
2023-01-13T07:04:22.528Z,100.00
2023-01-13T07:07:25.315Z,100.00
2023-01-13T07:10:28.130Z,100.00
2023-01-13T07:13:49.673Z,100.00
2023-01-13T07:16:53.979Z,100.00
2023-01-13T07:19:58.347Z,100.00
2023-01-13T07:23:01.555Z,100.00
2023-01-13T07:26:05.143Z,100.00
2023-01-13T07:29:08.189Z,100.00
2023-01-13T07:32:11.388Z,100.00
2023-01-13T07:35:14.394Z,100.00
2023-01-13T07:38:17.248Z,100.00
2023-01-13T07:41:38.689Z,100.00
2023-01-13T07:44:42.175Z,100.00
2023-01-13T07:47:45.163Z,100.00
2023-01-13T07:50:49.866Z,100.00
2023-01-13T07:53:52.909Z,100.00
2023-01-13T07:56:58.870Z,100.00
2023-01-13T08:00:01.774Z,100.00
2023-01-13T08:03:06.200Z,100.00
2023-01-13T08:06:10.320Z,100.00
2023-01-13T08:09:13.254Z,100.00
2023-01-13T08:12:34.508Z,100.00
2023-01-13T08:15:37.535Z,100.00
2023-01-13T08:18:40.938Z,100.00
2023-01-13T08:21:43.890Z,100.00
2023-01-13T08:24:46.826Z,100.00
2023-01-13T08:27:50.389Z,100.00
2023-01-13T08:30:54.472Z,100.00
2023-01-13T08:33:57.306Z,99.90
2023-01-13T08:37:00.320Z,99.26
2023-01-13T08:40:03.223Z,98.56
2023-01-13T08:43:06.708Z,97.51
2023-01-13T08:46:09.788Z,97.34
2023-01-13T08:49:12.873Z,98.84
2023-01-13T08:52:16.164Z,99.42
2023-01-13T08:55:20.163Z,97.67
2023-01-13T08:58:23.379Z,97.22
2023-01-13T09:01:27.119Z,96.81
2023-01-13T09:04:32.088Z,95.96
2023-01-13T09:07:36.328Z,96.12
2023-01-13T09:10:40.722Z,95.37
2023-01-13T09:13:43.786Z,95.18
2023-01-13T09:16:46.592Z,94.12
2023-01-13T09:19:50.297Z,94.95
2023-01-13T09:22:53.197Z,95.22
2023-01-13T09:25:56.096Z,95.30
2023-01-13T09:28:59.105Z,93.44
2023-01-13T09:32:02.019Z,93.10
2023-01-13T09:35:09.087Z,93.31
2023-01-13T09:38:44.641Z,92.95
2023-01-13T09:42:22.716Z,93.47
2023-01-13T09:50:50.768Z,92.73
2023-01-13T09:54:19.351Z,92.28
2023-01-13T09:57:22.609Z,92.21
2023-01-13T10:00:33.336Z,91.08
2023-01-13T10:03:37.227Z,91.92
2023-01-13T10:06:42.741Z,90.52
2023-01-13T10:09:49.943Z,90.40
2023-01-13T10:13:11.301Z,90.05
2023-01-13T10:16:27.232Z,90.09
2023-01-13T10:19:43.151Z,90.92
2023-01-13T10:22:55.482Z,89.36
2023-01-13T10:26:09.135Z,90.55
2023-01-13T10:29:30.355Z,90.95
2023-01-13T10:32:36.603Z,92.03
2023-01-13T10:35:58.320Z,91.11
2023-01-13T10:39:10.989Z,91.61
2023-01-13T10:42:18.633Z,91.39
2023-01-13T10:45:26.157Z,90.60
2023-01-13T10:48:43.727Z,88.75
2023-01-13T10:51:46.955Z,86.11
2023-01-13T10:54:59.091Z,84.60
2023-01-13T10:58:22.091Z,82.41
2023-01-13T11:01:28.448Z,84.82
2023-01-13T11:05:01.253Z,85.80
2023-01-13T11:08:05.439Z,85.80
2023-01-13T11:11:34.798Z,86.11
2023-01-13T11:14:40.776Z,86.00
2023-01-13T11:17:53.881Z,82.57
2023-01-13T11:20:58.820Z,80.24
2023-01-13T11:24:18.422Z,79.07
2023-01-13T11:27:41.423Z,76.09
2023-01-13T11:30:53.571Z,74.48
2023-01-13T11:34:09.157Z,75.01
2023-01-13T11:37:23.730Z,76.10
2023-01-13T11:40:34.064Z,79.09
2023-01-13T11:43:46.905Z,79.34
2023-01-13T11:46:51.855Z,79.38
2023-01-13T11:49:54.873Z,79.65
2023-01-13T11:53:35.988Z,79.10
2023-01-13T11:57:03.047Z,76.90
2023-01-13T12:00:21.072Z,76.76
2023-01-13T12:03:31.189Z,77.54
2023-01-13T12:06:39.502Z,76.63
2023-01-13T12:10:13.349Z,79.40
2023-01-13T12:13:45.360Z,80.37
2023-01-13T12:16:49.775Z,81.59
2023-01-13T12:19:52.619Z,82.94
2023-01-13T12:22:57.274Z,83.49
2023-01-13T12:26:05.919Z,83.96
2023-01-13T12:29:21.518Z,85.15
2023-01-13T12:32:34.714Z,85.40
2023-01-13T12:35:46.671Z,85.67
2023-01-13T12:39:24.805Z,86.04
2023-01-13T12:43:03.439Z,86.45
2023-01-13T12:46:22.189Z,85.89
2023-01-13T12:49:33.127Z,86.57
2023-01-13T12:52:46.130Z,87.79
2023-01-13T12:55:52.401Z,88.68
2023-01-13T12:59:21.937Z,89.12
2023-01-13T13:02:32.007Z,89.43
2023-01-13T13:06:06.443Z,90.57
2023-01-13T13:09:50.043Z,91.05
2023-01-13T13:13:17.353Z,92.13
2023-01-13T13:16:25.990Z,92.48
2023-01-13T13:19:31.835Z,92.42
2023-01-13T13:22:50.734Z,93.06
2023-01-13T13:26:05.098Z,92.94
2023-01-13T13:29:10.779Z,93.00
2023-01-13T13:32:45.861Z,93.10
2023-01-13T13:36:33.527Z,92.80
2023-01-13T13:39:54.861Z,92.51
2023-01-13T13:43:16.712Z,92.69
2023-01-13T13:46:48.187Z,92.84
2023-01-13T13:49:54.623Z,93.40
2023-01-13T13:53:06.516Z,94.58
2023-01-13T13:56:19.287Z,95.07
2023-01-13T13:59:24.819Z,95.31
2023-01-13T14:02:33.128Z,95.21
2023-01-13T14:05:37.699Z,95.82
2023-01-13T14:08:46.699Z,95.48
2023-01-13T14:12:01.568Z,94.99
2023-01-13T14:15:04.827Z,94.82
2023-01-13T14:18:18.205Z,94.68
2023-01-13T14:21:25.374Z,94.46
2023-01-13T14:24:28.616Z,94.40
2023-01-13T14:27:31.417Z,94.20
2023-01-13T14:30:34.796Z,94.03
2023-01-13T14:33:47.085Z,94.08
2023-01-13T14:36:51.507Z,94.48
2023-01-13T14:39:54.576Z,94.75
2023-01-13T14:43:01.031Z,95.15
2023-01-13T14:46:04.122Z,94.70
2023-01-13T14:49:37.134Z,94.51
2023-01-13T14:52:51.523Z,94.64
2023-01-13T14:55:58.921Z,94.11
2023-01-13T14:59:34.411Z,93.96
2023-01-13T15:02:59.055Z,93.62
2023-01-13T15:06:02.086Z,92.98
2023-01-13T15:09:16.051Z,92.37
2023-01-13T15:12:33.697Z,91.67
2023-01-13T15:15:38.057Z,92.24
2023-01-13T15:18:41.662Z,92.37
2023-01-13T15:21:44.608Z,92.07
2023-01-13T15:24:48.326Z,92.05
2023-01-13T15:27:52.891Z,92.13
2023-01-13T15:31:00.853Z,92.35
2023-01-13T15:34:04.141Z,92.38
2023-01-13T15:37:10.922Z,92.46
2023-01-13T15:40:21.439Z,91.73
2023-01-13T15:43:43.195Z,92.08
2023-01-13T15:46:46.157Z,92.05
2023-01-13T15:49:50.374Z,91.98
2023-01-13T15:52:55.337Z,91.93
2023-01-13T15:55:58.999Z,92.28
2023-01-13T15:59:02.485Z,92.92
2023-01-13T16:02:12.816Z,92.66
2023-01-13T16:05:15.903Z,92.93
2023-01-13T16:08:20.605Z,93.14
2023-01-13T16:11:23.816Z,93.57
2023-01-13T16:14:27.218Z,93.91
2023-01-13T16:17:31.256Z,94.39
2023-01-13T16:20:37.106Z,94.85
2023-01-13T16:23:40.357Z,95.20
2023-01-13T16:30:58.735Z,95.85
2023-01-13T16:34:18.002Z,96.06
2023-01-13T16:37:32.833Z,96.54
2023-01-13T16:40:47.163Z,96.32
2023-01-13T16:43:56.663Z,96.18
2023-01-13T16:47:21.688Z,96.47
2023-01-13T16:50:36.766Z,96.31
2023-01-13T16:53:47.791Z,96.41
2023-01-13T16:56:57.963Z,96.72
2023-01-13T17:00:10.250Z,97.26
2023-01-13T17:03:20.801Z,97.22
2023-01-13T17:06:38.821Z,97.78
2023-01-13T17:09:42.459Z,98.18
2023-01-13T17:12:46.091Z,98.48
2023-01-13T17:15:49.220Z,98.42
2023-01-13T17:18:53.355Z,99.17
2023-01-13T17:21:56.527Z,99.11
2023-01-13T17:24:59.619Z,99.13
2023-01-13T17:28:02.602Z,98.96
2023-01-13T17:31:07.868Z,99.05
2023-01-13T17:34:13.855Z,99.09
2023-01-13T17:37:21.369Z,99.06
2023-01-13T17:40:29.472Z,99.01
2023-01-13T17:43:32.912Z,99.93
2023-01-13T17:46:35.900Z,100.00
2023-01-13T17:49:39.120Z,100.00
2023-01-13T17:52:43.650Z,100.00
2023-01-13T17:55:56.784Z,100.00
2023-01-13T17:59:01.630Z,100.00
2023-01-13T18:02:07.389Z,100.00
2023-01-13T18:05:10.702Z,100.00
2023-01-13T18:08:13.863Z,100.00
2023-01-13T18:11:21.625Z,100.00
2023-01-13T18:14:26.081Z,100.00
2023-01-13T18:17:28.932Z,100.00
2023-01-13T18:20:54.916Z,100.00
2023-01-13T18:24:18.448Z,100.00
2023-01-13T18:27:27.678Z,100.00
2023-01-13T18:30:34.244Z,100.00
2023-01-13T18:33:38.415Z,100.00
2023-01-13T18:36:54.112Z,99.45
2023-01-13T18:40:02.859Z,100.00
2023-01-13T18:43:25.800Z,100.00
2023-01-13T18:46:32.901Z,100.00
2023-01-13T18:49:45.030Z,100.00
2023-01-13T18:52:49.179Z,100.00
2023-01-13T18:55:55.273Z,100.00
2023-01-13T18:58:58.327Z,100.00
2023-01-13T19:02:02.969Z,100.00
2023-01-13T19:05:07.609Z,100.00
2023-01-13T19:08:11.597Z,100.00
2023-01-13T19:11:15.205Z,100.00
2023-01-13T19:14:37.970Z,100.00
2023-01-13T19:17:48.795Z,100.00
2023-01-13T19:21:04.812Z,100.00
2023-01-13T19:24:10.946Z,100.00
2023-01-13T19:27:30.045Z,100.00
2023-01-13T19:30:34.367Z,100.00
2023-01-13T19:33:52.884Z,100.00
2023-01-13T19:40:37.604Z,100.00
2023-01-13T19:44:00.446Z,100.00
2023-01-13T19:47:39.650Z,100.00
2023-01-13T19:54:48.233Z,100.00
2023-01-13T19:57:51.821Z,100.00
2023-01-13T20:00:57.386Z,100.00
2023-01-13T20:04:05.168Z,100.00
2023-01-13T20:07:08.378Z,100.00
2023-01-13T20:10:13.477Z,100.00
2023-01-13T20:13:17.094Z,100.00
2023-01-13T20:16:20.341Z,100.00
2023-01-13T20:19:23.650Z,100.00
2023-01-13T20:22:27.196Z,100.00
2023-01-13T20:25:30.452Z,100.00
2023-01-13T20:28:37.315Z,100.00
2023-01-13T20:31:40.698Z,100.00
2023-01-13T20:34:43.537Z,100.00
2023-01-13T20:37:46.473Z,100.00
2023-01-13T20:40:59.217Z,100.00
2023-01-13T20:44:03.218Z,100.00
2023-01-13T20:47:07.641Z,100.00
2023-01-13T20:50:11.388Z,100.00
2023-01-13T20:53:14.752Z,100.00
2023-01-13T20:56:23.543Z,100.00
2023-01-13T20:59:27.202Z,100.00
2023-01-13T21:02:30.288Z,100.00
2023-01-13T21:05:38.838Z,100.00
2023-01-13T21:08:43.001Z,100.00
2023-01-13T21:12:10.706Z,100.00
2023-01-13T21:15:17.446Z,100.00
2023-01-13T21:18:38.741Z,100.00
2023-01-13T21:21:45.381Z,100.00
2023-01-13T21:24:48.874Z,100.00
2023-01-13T21:27:58.848Z,100.00
2023-01-13T21:31:12.474Z,100.00
2023-01-13T21:34:17.603Z,100.00
2023-01-13T21:37:24.998Z,100.00
2023-01-13T21:40:31.169Z,100.00
2023-01-13T21:43:56.945Z,100.00
2023-01-13T21:47:21.119Z,100.00
2023-01-13T21:50:27.459Z,100.00
2023-01-13T21:53:33.172Z,100.00
2023-01-13T21:56:36.100Z,100.00
2023-01-13T21:59:39.233Z,100.00
2023-01-13T22:02:48.359Z,100.00
2023-01-13T22:05:56.794Z,100.00
2023-01-13T22:09:01.314Z,100.00
2023-01-13T22:12:04.601Z,100.00
2023-01-13T22:15:08.625Z,100.00
2023-01-13T22:18:11.847Z,100.00
2023-01-13T22:21:14.945Z,100.00
2023-01-13T22:24:17.884Z,100.00
2023-01-13T22:27:23.738Z,100.00
2023-01-13T22:30:32.127Z,100.00
2023-01-13T22:33:35.219Z,100.00
2023-01-13T22:36:38.327Z,100.00
2023-01-13T22:39:41.286Z,100.00
2023-01-13T22:42:44.166Z,100.00
2023-01-13T22:45:57.946Z,100.00
2023-01-13T22:49:01.855Z,100.00
2023-01-13T22:52:06.343Z,100.00
2023-01-13T22:55:10.028Z,100.00
2023-01-13T22:58:13.776Z,100.00
2023-01-13T23:01:17.751Z,100.00
2023-01-13T23:04:20.786Z,100.00
2023-01-13T23:07:23.699Z,100.00
2023-01-13T23:10:27.701Z,100.00
2023-01-13T23:13:30.908Z,100.00
2023-01-13T23:16:37.259Z,100.00
2023-01-13T23:19:40.301Z,100.00
2023-01-13T23:22:43.170Z,100.00
2023-01-13T23:25:55.480Z,100.00
2023-01-13T23:29:05.884Z,100.00
2023-01-13T23:32:08.765Z,100.00
2023-01-13T23:35:11.629Z,100.00
2023-01-13T23:38:14.492Z,100.00
2023-01-13T23:41:20.287Z,100.00
2023-01-13T23:44:23.311Z,100.00
2023-01-13T23:47:26.180Z,100.00
2023-01-13T23:50:30.169Z,100.00
2023-01-13T23:53:40.096Z,100.00
2023-01-13T23:56:43.405Z,100.00
2023-01-13T23:59:46.749Z,100.00
